Time;durP1;ratioP1;P1;durP2;ratioP2;P2;SDS_P1;SDS_P2;PMS_P1;PMS_P2;Temp;Humidity;BMP_temperature;BMP_pressure;BME280_temperature;BME280_humidity;BME280_pressure;Samples;Min_cycle;Max_cycle;Signal;HPM_P1;HPM_P2
2024/02/07 00:02:54;;;;;;;0.10;0.10;;;11.30;99.90;;;;;;10513360;28;20058;-57
2024/02/07 00:07:57;;;;;;;0.33;0.33;;;11.40;99.90;;;;;;10516191;28;20048;-56
2024/02/07 00:13:00;;;;;;;0.10;0.10;;;11.20;99.90;;;;;;10516671;28;20063;-57
2024/02/07 00:18:02;;;;;;;0.10;0.10;;;10.70;99.90;;;;;;10521447;28;20052;-58
2024/02/07 00:23:07;;;;;;;0.73;0.73;;;11.20;99.90;;;;;;10524216;28;20048;-58
2024/02/07 00:28:10;;;;;;;0.10;0.10;;;11.10;99.90;;;;;;10525229;28;20050;-57
2024/02/07 00:33:12;;;;;;;1.27;0.80;;;10.60;99.90;;;;;;10527606;28;20051;-56
2024/02/07 00:38:14;;;;;;;0.10;0.10;;;9.50;99.90;;;;;;10533321;28;20110;-64
2024/02/07 00:43:18;;;;;;;2.78;1.05;;;10.50;99.90;;;;;;10529255;28;20129;-57
2024/02/07 00:48:20;;;;;;;0.20;0.20;;;10.50;99.90;;;;;;10521232;28;20856;-56
2024/02/07 00:53:22;;;;;;;0.10;0.10;;;11.30;99.90;;;;;;10529147;28;20082;-58
2024/02/07 00:58:26;;;;;;;0.10;0.10;;;11.50;99.90;;;;;;10524605;28;20047;-57
2024/02/07 01:03:28;;;;;;;0.10;0.10;;;11.70;99.90;;;;;;10534521;28;20080;-56
2024/02/07 01:08:30;;;;;;;0.20;0.20;;;11.80;99.90;;;;;;10528193;28;20043;-56
2024/02/07 01:13:33;;;;;;;0.10;0.10;;;11.90;99.90;;;;;;10526238;28;20166;-56
2024/02/07 01:18:37;;;;;;;0.10;0.10;;;11.30;99.90;;;;;;10528571;28;20093;-56
2024/02/07 01:23:39;;;;;;;0.10;0.10;;;11.40;99.90;;;;;;10526684;28;20058;-56
2024/02/07 01:28:43;;;;;;;0.00;0.00;;;11.70;99.90;;;;;;10525044;28;20560;-57
2024/02/07 01:33:46;;;;;;;4.00;1.55;;;11.90;99.90;;;;;;10523969;28;20051;-57
2024/02/07 01:38:48;;;;;;;;;;;11.90;99.90;;;;;;10525647;28;20904;-57
2024/02/07 01:43:51;;;;;;;0.10;0.10;;;12.00;99.90;;;;;;10518900;28;19924;-54
2024/02/07 01:48:53;;;;;;;0.10;0.10;;;12.10;99.90;;;;;;10523997;28;20134;-55
2024/02/07 01:53:55;;;;;;;0.43;0.43;;;12.20;99.90;;;;;;10526465;28;20051;-57
2024/02/07 01:58:59;;;;;;;0.10;0.10;;;12.20;99.90;;;;;;10523058;28;20147;-56
2024/02/07 02:04:02;;;;;;;0.10;0.10;;;11.40;99.90;;;;;;10527959;28;20225;-56
2024/02/07 02:09:06;;;;;;;0.10;0.10;;;11.70;99.90;;;;;;10526462;28;20071;-57
2024/02/07 02:14:10;;;;;;;0.10;0.10;;;12.10;99.90;;;;;;10522704;28;20056;-57
2024/02/07 02:19:12;;;;;;;0.10;0.10;;;11.70;99.90;;;;;;10525686;28;20154;-56
2024/02/07 02:24:44;;;;;;;0.10;0.10;;;10.40;99.90;;;;;;10529361;28;20770;-57
2024/02/07 02:29:53;;;;;;;0.10;0.10;;;11.00;99.90;;;;;;10523802;28;20596;-56
2024/02/07 02:34:59;;;;;;;0.10;0.10;;;10.50;99.90;;;;;;10525062;28;20169;-57
2024/02/07 02:40:05;;;;;;;0.17;0.17;;;10.40;99.90;;;;;;10524563;28;20134;-56
2024/02/07 02:45:09;;;;;;;0.10;0.10;;;10.80;99.90;;;;;;10524802;28;20179;-54
2024/02/07 02:50:11;;;;;;;0.10;0.10;;;11.60;99.90;;;;;;10524953;28;20175;-56
2024/02/07 02:55:13;;;;;;;0.70;0.70;;;11.90;99.90;;;;;;10526174;28;20071;-57
2024/02/07 03:00:20;;;;;;;0.10;0.10;;;11.50;99.90;;;;;;10525785;28;20040;-57
2024/02/07 03:05:37;;;;;;;0.10;0.10;;;11.90;99.90;;;;;;10523069;28;20928;-54
2024/02/07 03:10:39;;;;;;;0.10;0.10;;;10.20;99.90;;;;;;10524642;28;20276;-58
2024/02/07 03:15:43;;;;;;;0.10;0.10;;;11.40;99.90;;;;;;10519235;28;20074;-54
2024/02/07 03:20:45;;;;;;;0.10;0.10;;;10.80;99.90;;;;;;10519271;28;20047;-55
2024/02/07 03:25:49;;;;;;;0.15;0.15;;;11.10;99.90;;;;;;10515831;28;20044;-57
2024/02/07 03:30:53;;;;;;;0.10;0.10;;;11.60;99.90;;;;;;10522147;28;20093;-57
2024/02/07 03:35:55;;;;;;;1.15;1.05;;;11.70;99.90;;;;;;10519064;28;20067;-58
2024/02/07 03:40:57;;;;;;;0.30;0.30;;;11.90;99.90;;;;;;10516910;28;20162;-58
2024/02/07 03:46:05;;;;;;;0.00;0.00;;;11.90;99.90;;;;;;10518008;28;20041;-57
2024/02/07 03:51:08;;;;;;;0.10;0.10;;;11.80;99.90;;;;;;10520927;28;20052;-58
2024/02/07 03:56:11;;;;;;;0.10;0.10;;;11.90;99.90;;;;;;10518392;28;20386;-56
2024/02/07 05:19:42;;;;;;;0.10;0.10;;;12.00;99.90;;;;;;10533072;28;20040;-57
2024/02/07 05:24:45;;;;;;;0.10;0.10;;;12.30;99.90;;;;;;10515843;28;20072;-58
2024/02/07 05:29:47;;;;;;;;;;;12.60;99.90;;;;;;10500967;28;20075;-58
2024/02/07 05:34:51;;;;;;;0.10;0.10;;;12.50;99.90;;;;;;10502712;28;20700;-59
2024/02/07 05:39:53;;;;;;;0.10;0.10;;;12.50;99.90;;;;;;10503343;28;20611;-57
2024/02/07 05:44:55;;;;;;;0.10;0.10;;;12.30;99.90;;;;;;10504592;28;20331;-56
2024/02/07 05:49:59;;;;;;;0.03;0.03;;;12.70;99.90;;;;;;10503746;28;20305;-57
2024/02/07 05:55:01;;;;;;;1.98;1.35;;;12.60;99.90;;;;;;10501437;28;20105;-58
2024/02/07 06:00:05;;;;;;;0.10;0.10;;;12.70;99.90;;;;;;10502777;28;20161;-56
2024/02/07 06:05:10;;;;;;;0.10;0.10;;;12.60;99.90;;;;;;10500426;28;20476;-57
2024/02/07 06:10:12;;;;;;;0.10;0.10;;;12.80;99.90;;;;;;10500321;28;20051;-57
2024/02/07 06:15:14;;;;;;;0.43;0.43;;;12.90;99.90;;;;;;10491200;28;20581;-58
2024/02/07 06:20:18;;;;;;;0.00;0.00;;;13.10;99.90;;;;;;10502346;28;20147;-57
2024/02/07 06:25:20;;;;;;;0.10;0.10;;;13.20;99.90;;;;;;10502849;28;20080;-62
2024/02/07 06:30:23;;;;;;;0.10;0.10;;;13.10;99.90;;;;;;10501311;28;20128;-57
2024/02/07 06:35:26;;;;;;;0.98;0.90;;;13.50;99.90;;;;;;10496876;28;20048;-57
2024/02/07 06:40:29;;;;;;;0.10;0.10;;;12.30;99.90;;;;;;10499037;28;20069;-57
2024/02/07 06:45:34;;;;;;;0.10;0.10;;;11.00;99.90;;;;;;10484988;28;20648;-56
2024/02/07 06:50:37;;;;;;;0.10;0.10;;;10.20;99.90;;;;;;10496920;28;20055;-57
2024/02/07 06:55:40;;;;;;;0.10;0.10;;;10.00;99.90;;;;;;10498493;28;20958;-58
2024/02/07 07:00:42;;;;;;;0.17;0.17;;;9.90;99.90;;;;;;10499753;28;22593;-55
2024/02/07 07:05:46;;;;;;;0.10;0.10;;;9.70;99.90;;;;;;10495526;28;20203;-55
2024/02/07 07:10:48;;;;;;;0.00;0.00;;;11.50;99.90;;;;;;10497721;28;20082;-57
2024/02/07 07:15:50;;;;;;;0.10;0.10;;;12.50;99.90;;;;;;10489261;28;20059;-57
2024/02/07 07:20:54;;;;;;;0.10;0.10;;;12.80;99.90;;;;;;10499700;28;20075;-56
2024/02/07 07:25:56;;;;;;;0.10;0.10;;;13.00;99.90;;;;;;10495627;28;20143;-58
2024/02/07 07:30:58;;;;;;;0.10;0.10;;;13.10;99.90;;;;;;10497415;28;20060;-58
2024/02/07 07:36:02;;;;;;;0.37;0.37;;;13.20;99.90;;;;;;10495293;28;20079;-57
2024/02/07 07:41:04;;;;;;;0.10;0.10;;;13.10;99.90;;;;;;10488222;28;20455;-58
2024/02/07 07:46:08;;;;;;;0.03;0.03;;;13.10;99.90;;;;;;10492838;28;20052;-56
2024/02/07 07:51:15;;;;;;;0.25;0.25;;;13.10;99.90;;;;;;10497203;28;20419;-56
2024/02/07 07:56:17;;;;;;;0.10;0.10;;;13.10;99.90;;;;;;10493078;28;20340;-58
2024/02/07 08:01:21;;;;;;;5.33;2.13;;;13.20;99.90;;;;;;10492131;28;20618;-57
2024/02/07 08:06:24;;;;;;;0.10;0.10;;;13.20;99.90;;;;;;10500190;28;20059;-57
2024/02/07 08:11:26;;;;;;;0.35;0.35;;;13.20;99.90;;;;;;10496102;28;20133;-58
2024/02/07 08:16:28;;;;;;;0.17;0.17;;;13.10;99.90;;;;;;10500852;28;20091;-57
2024/02/07 08:21:34;;;;;;;0.00;0.00;;;13.10;99.90;;;;;;10497595;28;20074;-57
2024/02/07 08:26:36;;;;;;;0.00;0.00;;;13.30;99.90;;;;;;10490071;28;20167;-59
2024/02/07 08:31:42;;;;;;;0.20;0.20;;;13.40;99.90;;;;;;10494972;28;20059;-59
2024/02/07 08:36:46;;;;;;;3.30;0.63;;;13.30;99.90;;;;;;10497884;28;20044;-57
2024/02/07 08:41:48;;;;;;;0.75;0.75;;;13.30;99.90;;;;;;10494495;28;20823;-56
2024/02/07 08:46:50;;;;;;;0.10;0.10;;;13.30;99.90;;;;;;10491946;28;20613;-57
2024/02/07 08:51:54;;;;;;;0.10;0.10;;;13.30;99.90;;;;;;10495138;28;20175;-58
2024/02/07 08:56:56;;;;;;;0.75;0.75;;;13.30;99.90;;;;;;10498823;28;20055;-57
2024/02/07 09:01:58;;;;;;;1.03;1.03;;;13.40;99.90;;;;;;10502165;28;20101;-59
2024/02/07 09:07:01;;;;;;;0.10;0.10;;;13.40;99.90;;;;;;10499578;28;20138;-57
2024/02/07 09:12:03;;;;;;;0.55;0.47;;;13.30;99.90;;;;;;10501376;28;20075;-54
2024/02/07 09:17:06;;;;;;;0.10;0.10;;;13.50;99.90;;;;;;10490204;28;20838;-58
2024/02/07 09:22:10;;;;;;;0.10;0.10;;;13.50;99.90;;;;;;10500866;28;20052;-57
2024/02/07 09:27:12;;;;;;;0.30;0.30;;;13.40;99.90;;;;;;10506506;28;20092;-57
2024/02/07 09:32:14;;;;;;;0.20;0.20;;;13.60;99.90;;;;;;10502273;28;20044;-57
2024/02/07 09:37:18;;;;;;;0.50;0.50;;;13.60;99.90;;;;;;10500941;28;20175;-57
2024/02/07 09:42:22;;;;;;;0.30;0.30;;;13.60;99.90;;;;;;10502641;28;20052;-57
2024/02/07 09:47:25;;;;;;;1.95;1.27;;;13.70;99.90;;;;;;10501270;28;20040;-57
2024/02/07 09:52:32;;;;;;;0.40;0.40;;;13.70;99.90;;;;;;10492088;28;20086;-58
2024/02/07 09:57:35;;;;;;;0.10;0.10;;;13.70;99.90;;;;;;10503393;28;20048;-57
2024/02/07 10:02:42;;;;;;;0.75;0.75;;;13.60;99.90;;;;;;10497247;28;20052;-56
2024/02/07 10:07:50;;;;;;;0.10;0.10;;;13.80;99.90;;;;;;10505752;28;20525;-56
2024/02/07 10:12:56;;;;;;;0.10;0.10;;;13.80;99.90;;;;;;10503270;28;20781;-57
2024/02/07 10:18:00;;;;;;;0.17;0.17;;;13.80;99.90;;;;;;10499929;28;20763;-58
2024/02/07 10:23:08;;;;;;;0.10;0.10;;;13.90;99.90;;;;;;10504011;28;20138;-57
2024/02/07 10:28:10;;;;;;;0.10;0.10;;;14.00;99.90;;;;;;10501219;28;20047;-56
2024/02/07 10:33:12;;;;;;;0.63;0.63;;;13.90;99.90;;;;;;10493561;28;20040;-58
2024/02/07 10:38:25;;;;;;;0.10;0.10;;;14.10;99.90;;;;;;10498723;28;20044;-57
2024/02/07 10:43:30;;;;;;;0.40;0.40;;;14.10;99.90;;;;;;10497944;28;20479;-55
2024/02/07 10:48:33;;;;;;;0.35;0.35;;;14.20;99.90;;;;;;10493980;28;20859;-57
2024/02/07 10:53:37;;;;;;;0.15;0.15;;;14.30;99.90;;;;;;10493850;28;20044;-58
2024/02/07 10:58:40;;;;;;;0.10;0.10;;;14.40;99.90;;;;;;10490851;28;20044;-53
2024/02/07 11:03:42;;;;;;;0.75;0.75;;;14.30;99.90;;;;;;10495065;28;20887;-58
2024/02/07 11:08:48;;;;;;;0.10;0.10;;;14.40;99.90;;;;;;10495777;28;20052;-55
2024/02/07 11:13:52;;;;;;;0.10;0.10;;;14.20;99.90;;;;;;10497059;28;20501;-54
2024/02/07 11:18:54;;;;;;;0.40;0.40;;;14.40;99.90;;;;;;10486858;28;20075;-57
2024/02/07 11:24:00;;;;;;;0.17;0.17;;;14.40;99.90;;;;;;10494383;28;20048;-55
2024/02/07 11:29:03;;;;;;;0.25;0.25;;;14.50;99.90;;;;;;10497952;28;20808;-56
2024/02/07 11:34:07;;;;;;;0.10;0.10;;;14.50;99.90;;;;;;10497495;28;20057;-53
2024/02/07 11:39:18;;;;;;;0.20;0.20;;;14.50;99.90;;;;;;10498016;28;20639;-55
2024/02/07 11:44:23;;;;;;;0.30;0.30;;;14.60;99.90;;;;;;10489394;28;20058;-54
2024/02/07 11:49:28;;;;;;;6.25;0.75;;;14.60;99.90;;;;;;10499389;28;20211;-56
2024/02/07 11:54:32;;;;;;;0.10;0.10;;;14.60;99.90;;;;;;10494254;28;20091;-54
2024/02/07 11:59:34;;;;;;;0.20;0.20;;;14.50;99.90;;;;;;10496015;28;20109;-56
2024/02/07 12:04:40;;;;;;;0.10;0.10;;;14.70;99.90;;;;;;10498679;28;20574;-56
2024/02/07 12:09:43;;;;;;;0.10;0.10;;;14.80;99.90;;;;;;10497480;28;20143;-56
2024/02/07 12:14:48;;;;;;;0.10;0.10;;;14.80;99.90;;;;;;10496071;28;20130;-55
2024/02/07 12:19:51;;;;;;;3.03;1.08;;;14.70;99.90;;;;;;10492730;28;20078;-56
2024/02/07 12:24:55;;;;;;;;;;;14.90;99.90;;;;;;10487926;28;20163;-60
2024/02/07 12:29:58;;;;;;;0.28;0.28;;;15.20;99.90;;;;;;10497659;28;20061;-55
2024/02/07 12:35:00;;;;;;;0.20;0.20;;;15.00;99.90;;;;;;10497839;28;20146;-54
2024/02/07 12:40:10;;;;;;;0.77;0.40;;;15.20;99.90;;;;;;10506068;28;20060;-55
2024/02/07 12:45:13;;;;;;;0.32;0.32;;;15.00;99.90;;;;;;10495389;28;20070;-57
2024/02/07 12:50:15;;;;;;;0.20;0.20;;;15.20;99.90;;;;;;10504230;28;20059;-56
2024/02/07 12:55:19;;;;;;;4.70;0.70;;;15.30;99.90;;;;;;10499907;28;20044;-57
2024/02/07 13:00:21;;;;;;;0.40;0.40;;;15.50;99.90;;;;;;10508960;28;21262;-57
2024/02/07 13:05:23;;;;;;;0.10;0.10;;;15.70;99.90;;;;;;10501471;28;20840;-57
2024/02/07 13:10:27;;;;;;;0.00;0.00;;;15.80;99.90;;;;;;10496668;28;20857;-57
2024/02/07 13:15:29;;;;;;;0.40;0.40;;;15.90;99.90;;;;;;10498643;28;20040;-57
2024/02/07 13:20:31;;;;;;;0.43;0.43;;;16.10;99.90;;;;;;10498427;28;20048;-54
2024/02/07 13:25:35;;;;;;;0.00;0.00;;;16.30;99.90;;;;;;10501732;28;20086;-55
2024/02/07 13:30:37;;;;;;;0.20;0.20;;;16.40;99.90;;;;;;10505639;28;20044;-57
2024/02/07 13:35:39;;;;;;;0.13;0.13;;;16.50;99.90;;;;;;10501923;28;20566;-54
2024/02/07 13:40:42;;;;;;;4.20;0.73;;;16.60;99.90;;;;;;10505828;28;20055;-56
2024/02/07 13:45:44;;;;;;;0.88;0.60;;;16.70;99.90;;;;;;10502267;28;20465;-55
2024/02/07 13:50:48;;;;;;;2.67;1.80;;;16.70;99.90;;;;;;10501420;28;20067;-58
2024/02/07 13:55:51;;;;;;;0.10;0.10;;;16.70;99.90;;;;;;10502789;28;20048;-56
2024/02/07 14:00:53;;;;;;;0.28;0.28;;;16.80;99.90;;;;;;10500375;28;20047;-56
2024/02/07 14:05:55;;;;;;;0.68;0.68;;;16.90;99.90;;;;;;10491651;28;20924;-56
2024/02/07 14:11:00;;;;;;;0.30;0.30;;;17.10;99.90;;;;;;10500945;28;20052;-57
2024/02/07 14:16:02;;;;;;;0.32;0.32;;;17.20;99.90;;;;;;10496619;28;20040;-56
2024/02/07 14:21:05;;;;;;;0.10;0.10;;;17.20;99.90;;;;;;10502134;28;20071;-57
2024/02/07 14:26:08;;;;;;;;;;;17.30;99.90;;;;;;10495406;28;20112;-58
2024/02/07 14:31:10;;;;;;;0.10;0.10;;;17.40;99.90;;;;;;10491712;28;20010;-57
2024/02/07 14:36:13;;;;;;;0.20;0.20;;;17.40;99.90;;;;;;10493985;28;20446;-56
2024/02/07 14:41:16;;;;;;;1.63;1.52;;;17.60;99.90;;;;;;10493879;28;20543;-56
2024/02/07 14:46:18;;;;;;;0.30;0.30;;;17.80;99.90;;;;;;10492163;28;20048;-57
2024/02/07 14:51:25;;;;;;;0.22;0.22;;;17.90;99.90;;;;;;10492425;28;20577;-56
2024/02/07 14:56:28;;;;;;;19.90;3.67;;;18.00;99.90;;;;;;10493849;28;20048;-56
2024/02/07 15:01:31;;;;;;;15.88;4.32;;;18.00;99.90;;;;;;10494912;28;20072;-58
2024/02/07 15:06:33;;;;;;;17.90;4.78;;;18.00;99.90;;;;;;10491308;28;20170;-57
2024/02/07 15:11:37;;;;;;;19.60;2.80;;;18.10;99.90;;;;;;10494848;28;20051;-58
2024/02/07 15:16:39;;;;;;;19.02;3.58;;;17.90;99.90;;;;;;10498930;28;20482;-56
2024/02/07 15:21:41;;;;;;;11.45;2.67;;;17.90;99.90;;;;;;10498808;28;20056;-59
2024/02/07 15:26:44;;;;;;;16.42;4.97;;;17.90;99.90;;;;;;10492682;28;20824;-55
2024/02/07 15:31:46;;;;;;;8.20;2.78;;;17.80;99.90;;;;;;10492534;28;20418;-58
2024/02/07 15:36:48;;;;;;;15.10;4.40;;;17.80;99.90;;;;;;10496331;28;20138;-59
2024/02/07 15:41:51;;;;;;;13.10;4.63;;;17.70;99.90;;;;;;10497614;28;20075;-57
2024/02/07 15:46:53;;;;;;;13.82;3.03;;;17.70;99.90;;;;;;10491979;28;20740;-56
2024/02/07 15:51:55;;;;;;;11.57;3.30;;;17.60;99.90;;;;;;10493819;28;20614;-58
2024/02/07 15:57:02;;;;;;;11.80;2.50;;;17.50;99.90;;;;;;10487385;28;20039;-57
2024/02/07 16:02:04;;;;;;;16.27;2.17;;;17.40;99.90;;;;;;10486690;28;20055;-57
2024/02/07 16:07:06;;;;;;;14.88;2.28;;;17.40;99.90;;;;;;10486951;28;20101;-57
2024/02/07 16:12:09;;;;;;;9.10;3.60;;;17.50;99.90;;;;;;10485812;28;20083;-55
2024/02/07 16:17:11;;;;;;;10.20;2.60;;;17.40;99.90;;;;;;10488032;28;20154;-57
2024/02/07 16:22:13;;;;;;;7.50;2.03;;;17.40;99.90;;;;;;10489940;28;20163;-56
2024/02/07 16:27:17;;;;;;;9.73;2.17;;;17.40;99.90;;;;;;10487973;28;20819;-57
2024/02/07 16:32:20;;;;;;;13.70;3.05;;;17.30;99.90;;;;;;10492171;28;20171;-57
2024/02/07 16:37:23;;;;;;;9.18;2.20;;;17.20;99.90;;;;;;10490480;28;20063;-55
2024/02/07 16:42:26;;;;;;;6.95;2.15;;;17.10;99.90;;;;;;10493174;28;20036;-56
2024/02/07 16:47:28;;;;;;;13.27;2.15;;;17.00;99.90;;;;;;10493272;28;20969;-56
2024/02/07 16:52:31;;;;;;;16.50;2.72;;;17.00;99.90;;;;;;10489149;28;20077;-55
2024/02/07 16:57:35;;;;;;;9.82;3.03;;;16.90;99.90;;;;;;10491164;28;20868;-56
2024/02/07 17:02:37;;;;;;;11.65;4.07;;;16.90;99.90;;;;;;10486275;28;20059;-58
2024/02/07 17:07:39;;;;;;;10.07;3.15;;;16.80;99.90;;;;;;10477579;28;20059;-58
2024/02/07 17:12:43;;;;;;;15.88;2.55;;;17.00;99.90;;;;;;10488100;28;20096;-54
2024/02/07 17:17:45;;;;;;;10.30;3.20;;;16.80;99.90;;;;;;10486056;28;20062;-57
2024/02/07 17:22:47;;;;;;;13.83;4.33;;;16.70;99.90;;;;;;10489042;28;20051;-56
2024/02/07 17:27:50;;;;;;;11.83;3.80;;;16.40;99.90;;;;;;10493589;28;21075;-57
2024/02/07 17:32:53;;;;;;;13.73;3.35;;;16.00;99.90;;;;;;10492559;28;20481;-57
2024/02/07 17:37:55;;;;;;;14.07;4.00;;;15.60;99.90;;;;;;10494935;28;20071;-57
2024/02/07 17:42:58;;;;;;;16.55;6.82;;;15.40;99.90;;;;;;10497480;28;20178;-58
2024/02/07 17:48:00;;;;;;;11.02;4.38;;;15.20;99.90;;;;;;10495365;28;20158;-56
2024/02/07 17:53:03;;;;;;;18.67;5.17;;;15.00;99.90;;;;;;10490451;28;20162;-57
2024/02/07 17:58:07;;;;;;;12.77;4.70;;;14.90;99.90;;;;;;10494542;28;20055;-57
2024/02/07 18:03:09;;;;;;;21.48;5.47;;;14.70;99.90;;;;;;10492984;28;20048;-57
2024/02/07 18:08:11;;;;;;;17.13;4.73;;;14.50;99.90;;;;;;10489941;28;20078;-57
2024/02/07 18:13:15;;;;;;;17.05;5.32;;;14.40;99.90;;;;;;10496074;28;20051;-57
2024/02/07 18:18:17;;;;;;;25.30;7.18;;;14.30;99.90;;;;;;10492251;28;20056;-55
2024/02/07 18:23:19;;;;;;;23.60;6.40;;;14.20;99.90;;;;;;10495170;28;20111;-57
2024/02/07 18:28:22;;;;;;;25.10;7.50;;;14.20;99.90;;;;;;10494968;28;20071;-58
2024/02/07 18:33:25;;;;;;;14.80;6.82;;;14.10;99.90;;;;;;10498030;28;20055;-56
2024/02/07 18:38:27;;;;;;;;;;;14.00;99.90;;;;;;10499022;28;20550;-57
2024/02/07 18:43:30;;;;;;;16.80;6.75;;;13.90;99.90;;;;;;10493774;28;19924;-54
2024/02/07 18:48:32;;;;;;;20.90;6.53;;;14.00;99.90;;;;;;10494619;28;20055;-58
2024/02/07 18:53:34;;;;;;;17.47;5.87;;;13.90;99.90;;;;;;10488738;28;20056;-57
2024/02/07 18:58:38;;;;;;;23.15;5.05;;;13.80;99.90;;;;;;10487977;28;20782;-57
2024/02/07 19:03:40;;;;;;;19.90;4.90;;;13.80;99.90;;;;;;10499803;28;20059;-58
2024/02/07 19:08:45;;;;;;;23.03;9.07;;;13.60;99.90;;;;;;10499933;28;20178;-57
2024/02/07 19:13:48;;;;;;;22.17;8.80;;;13.60;99.90;;;;;;10494631;28;20067;-56
2024/02/07 19:18:50;;;;;;;24.02;8.63;;;13.70;99.90;;;;;;10495873;28;23117;-57
2024/02/07 19:23:52;;;;;;;28.20;6.77;;;13.70;99.90;;;;;;10491693;28;20471;-56
2024/02/07 19:28:56;;;;;;;29.43;7.37;;;13.70;99.90;;;;;;10498157;28;20051;-58
2024/02/07 19:33:59;;;;;;;16.73;5.78;;;13.80;99.90;;;;;;10498378;28;20083;-56
2024/02/07 19:39:01;;;;;;;15.43;4.65;;;14.40;99.90;;;;;;10491210;28;20048;-57
2024/02/07 19:44:05;;;;;;;13.73;4.43;;;14.80;99.90;;;;;;10494273;28;20059;-55
2024/02/07 19:49:07;;;;;;;15.50;4.63;;;15.00;99.90;;;;;;10490261;28;20745;-56
2024/02/07 19:54:09;;;;;;;11.60;3.65;;;15.10;99.90;;;;;;10489846;28;20615;-54
2024/02/07 19:59:13;;;;;;;12.13;4.03;;;15.00;99.90;;;;;;10490849;28;20937;-56
2024/02/07 20:04:15;;;;;;;18.98;5.68;;;15.10;99.90;;;;;;10489744;28;20478;-58
2024/02/07 20:09:17;;;;;;;12.80;4.47;;;15.10;99.90;;;;;;10491726;28;20059;-58
2024/02/07 20:14:20;;;;;;;12.40;4.40;;;15.00;99.90;;;;;;10489986;28;21001;-56
2024/02/07 20:19:23;;;;;;;12.80;4.82;;;14.90;99.90;;;;;;10490664;28;20098;-57
2024/02/07 20:24:25;;;;;;;13.55;5.78;;;14.90;99.90;;;;;;10487137;28;20062;-57
2024/02/07 20:29:29;;;;;;;22.67;4.87;;;14.90;99.90;;;;;;10493298;28;20087;-57
2024/02/07 20:34:31;;;;;;;17.90;5.55;;;15.00;99.90;;;;;;10489474;28;20139;-60
2024/02/07 20:39:33;;;;;;;22.73;5.10;;;14.90;99.90;;;;;;10492480;28;20044;-57
2024/02/07 20:44:36;;;;;;;14.65;5.90;;;14.90;99.90;;;;;;10493333;28;20036;-57
2024/02/07 20:49:39;;;;;;;23.33;6.22;;;14.80;99.90;;;;;;10488804;28;20953;-57
2024/02/07 20:54:41;;;;;;;15.30;4.53;;;14.90;99.90;;;;;;10493115;28;20050;-55
2024/02/07 20:59:44;;;;;;;17.65;5.63;;;14.80;99.90;;;;;;10500842;28;20502;-57
2024/02/07 21:04:46;;;;;;;19.70;6.50;;;14.80;99.90;;;;;;10501177;28;20551;-57
2024/02/07 21:09:48;;;;;;;15.23;5.95;;;14.80;99.90;;;;;;10500415;28;20052;-58
2024/02/07 21:14:52;;;;;;;15.03;4.90;;;14.70;99.90;;;;;;10496841;28;20083;-58
2024/02/07 21:19:56;;;;;;;26.23;6.20;;;14.70;99.90;;;;;;10498371;28;20056;-56
2024/02/07 21:24:59;;;;;;;17.95;5.78;;;14.70;99.90;;;;;;10505143;28;20126;-59
2024/02/07 21:30:02;;;;;;;15.18;6.60;;;14.60;99.90;;;;;;10505264;28;20056;-55
2024/02/07 21:35:07;;;;;;;15.55;6.38;;;14.60;99.90;;;;;;10502822;28;20108;-58
2024/02/07 21:40:10;;;;;;;16.35;6.13;;;14.60;99.90;;;;;;10507382;28;20060;-56
2024/02/07 21:45:13;;;;;;;;;;;14.50;99.90;;;;;;10500454;28;20175;-56
2024/02/07 21:50:16;;;;;;;;;;;14.40;99.90;;;;;;10505134;28;19962;-54
2024/02/07 21:55:18;;;;;;;17.85;6.97;;;14.40;99.90;;;;;;10504838;28;19931;-56
2024/02/07 22:00:22;;;;;;;16.77;6.30;;;14.30;99.90;;;;;;10506370;28;20051;-53
2024/02/07 22:05:24;;;;;;;15.93;5.18;;;14.20;99.90;;;;;;10505532;28;20107;-54
2024/02/07 22:10:27;;;;;;;12.93;4.47;;;14.10;99.90;;;;;;10506979;28;20648;-56
2024/02/07 22:15:31;;;;;;;9.10;3.60;;;14.10;99.90;;;;;;10507535;28;20066;-56
2024/02/07 22:20:33;;;;;;;13.55;4.53;;;14.10;99.90;;;;;;10509227;28;20501;-56
2024/02/07 22:25:35;;;;;;;16.17;5.00;;;14.10;99.90;;;;;;10504674;28;20040;-57
2024/02/07 22:30:40;;;;;;;21.40;6.23;;;14.00;99.90;;;;;;10507072;28;20047;-56
2024/02/07 22:35:44;;;;;;;16.42;5.22;;;14.00;99.90;;;;;;10509032;28;20062;-55
2024/02/07 22:40:46;;;;;;;10.73;4.85;;;14.00;99.90;;;;;;10511668;28;20250;-58
2024/02/07 22:45:49;;;;;;;14.37;5.83;;;14.00;99.90;;;;;;10498533;28;20144;-57
2024/02/07 22:50:52;;;;;;;15.57;5.28;;;14.00;99.90;;;;;;10501932;28;20052;-56
2024/02/07 22:55:54;;;;;;;14.13;4.82;;;13.90;99.90;;;;;;10504697;28;20058;-55
2024/02/07 23:00:57;;;;;;;14.60;4.20;;;13.90;99.90;;;;;;10503010;28;20078;-55
2024/02/07 23:06:00;;;;;;;15.57;4.90;;;13.80;99.90;;;;;;10503379;28;20781;-57
2024/02/07 23:11:02;;;;;;;12.23;5.05;;;13.80;99.90;;;;;;10503881;28;20055;-55
2024/02/07 23:16:06;;;;;;;12.83;5.43;;;13.80;99.90;;;;;;10501325;28;20139;-56
2024/02/07 23:21:08;;;;;;;13.63;4.50;;;13.70;99.90;;;;;;10502282;28;20113;-58
2024/02/07 23:26:10;;;;;;;9.87;4.00;;;13.80;99.90;;;;;;10503452;28;20059;-54
2024/02/07 23:31:14;;;;;;;9.47;4.23;;;13.70;99.90;;;;;;10504695;28;20055;-57
2024/02/07 23:36:16;;;;;;;10.15;4.57;;;13.60;99.90;;;;;;10499999;28;20563;-56
2024/02/07 23:41:17;;;;;;;13.73;4.67;;;13.60;99.90;;;;;;10498816;28;20939;-56
2024/02/07 23:46:21;;;;;;;10.47;4.77;;;13.60;99.90;;;;;;10502747;28;20443;-57
2024/02/07 23:51:23;;;;;;;10.85;4.03;;;13.60;99.90;;;;;;10502804;28;20072;-57
2024/02/07 23:56:25;;;;;;;9.47;4.53;;;13.60;99.90;;;;;;10499055;28;20048;-56
